createdAt,value
2018-08-30T00:01:17.053Z,91.50
2018-08-30T00:03:45.864Z,92.10
2018-08-30T00:06:14.649Z,90.60
2018-08-30T00:08:43.460Z,91.30
2018-08-30T00:11:12.361Z,91.90
2018-08-30T00:13:41.108Z,92.50
2018-08-30T00:16:09.919Z,93.20
2018-08-30T00:18:38.661Z,93.40
2018-08-30T00:21:07.732Z,93.10
2018-08-30T00:23:36.552Z,91.90
2018-08-30T00:26:05.390Z,92.50
2018-08-30T00:28:34.299Z,92.90
2018-08-30T00:31:03.142Z,93.20
2018-08-30T00:33:31.984Z,92.10
2018-08-30T00:36:00.790Z,92.40
2018-08-30T00:38:29.617Z,93.20
2018-08-30T00:40:58.392Z,92.80
2018-08-30T00:43:27.234Z,92.40
2018-08-30T00:45:56.089Z,92.20
2018-08-30T00:48:24.886Z,92.50
2018-08-30T00:50:53.704Z,92.90
2018-08-30T00:53:22.543Z,92.70
2018-08-30T00:55:51.351Z,92.80
2018-08-30T00:58:20.199Z,92.40
2018-08-30T01:00:49.006Z,92.80
2018-08-30T01:03:17.919Z,93.00
2018-08-30T01:05:46.738Z,93.70
2018-08-30T01:08:15.545Z,94.40
2018-08-30T01:10:44.439Z,94.60
2018-08-30T01:13:13.245Z,93.60
2018-08-30T01:15:42.089Z,93.90
2018-08-30T01:18:10.919Z,93.80
2018-08-30T01:20:39.875Z,94.30
2018-08-30T01:23:08.740Z,94.60
2018-08-30T01:25:37.660Z,93.90
2018-08-30T01:28:06.491Z,95.10
2018-08-30T01:30:35.318Z,95.30
2018-08-30T01:33:04.127Z,93.80
2018-08-30T01:35:32.974Z,94.90
2018-08-30T01:38:01.723Z,94.00
2018-08-30T01:40:30.525Z,92.80
2018-08-30T01:42:59.342Z,94.00
2018-08-30T01:45:28.165Z,93.20
2018-08-30T01:47:56.955Z,93.70
2018-08-30T01:50:25.721Z,93.80
2018-08-30T01:52:54.511Z,92.80
2018-08-30T01:55:23.327Z,94.60
2018-08-30T01:57:52.128Z,95.20
2018-08-30T02:00:20.961Z,95.60
2018-08-30T02:02:49.774Z,93.50
2018-08-30T02:05:18.595Z,94.30
2018-08-30T02:07:47.391Z,94.40
2018-08-30T02:10:16.188Z,94.20
2018-08-30T02:12:45.012Z,94.10
2018-08-30T02:15:13.858Z,94.00
2018-08-30T02:17:42.621Z,93.20
2018-08-30T02:20:11.438Z,92.60
2018-08-30T02:22:41.223Z,93.30
2018-08-30T02:25:10.045Z,93.40
2018-08-30T02:27:38.947Z,93.80
2018-08-30T02:30:07.856Z,93.80
2018-08-30T02:32:36.699Z,94.40
2018-08-30T02:35:05.593Z,94.40
2018-08-30T02:37:34.439Z,93.70
2018-08-30T02:40:03.271Z,94.40
2018-08-30T02:42:32.125Z,93.60
2018-08-30T02:45:00.915Z,92.30
2018-08-30T02:47:29.811Z,92.20
2018-08-30T02:49:58.673Z,92.60
2018-08-30T02:52:27.504Z,93.40
2018-08-30T02:54:56.284Z,92.30
2018-08-30T02:57:25.083Z,93.90
2018-08-30T02:59:53.875Z,94.80
2018-08-30T03:02:22.697Z,95.40
2018-08-30T03:04:51.468Z,96.10
2018-08-30T03:07:20.324Z,95.90
2018-08-30T03:09:49.134Z,96.40
2018-08-30T03:12:17.936Z,97.30
2018-08-30T03:14:56.690Z,96.00
2018-08-30T03:17:25.559Z,95.80
2018-08-30T03:19:54.361Z,95.80
2018-08-30T03:22:23.161Z,95.50
2018-08-30T03:24:51.944Z,96.10
2018-08-30T03:27:20.803Z,96.10
2018-08-30T03:29:50.054Z,95.10
2018-08-30T03:32:19.001Z,96.20
2018-08-30T03:34:47.806Z,96.80
2018-08-30T03:37:16.602Z,96.20
2018-08-30T03:39:45.557Z,96.60
2018-08-30T03:42:14.321Z,96.40
2018-08-30T03:44:43.121Z,97.20
2018-08-30T03:47:11.968Z,97.90
2018-08-30T03:49:41.310Z,97.70
2018-08-30T03:52:10.645Z,97.60
2018-08-30T03:54:39.725Z,97.20
2018-08-30T03:57:08.554Z,98.30
2018-08-30T03:59:37.392Z,98.10
2018-08-30T04:02:06.232Z,98.60
2018-08-30T04:04:35.075Z,97.50
2018-08-30T04:07:03.929Z,97.90
2018-08-30T04:09:32.719Z,98.00
2018-08-30T04:12:01.521Z,97.20
2018-08-30T04:14:30.324Z,98.10
2018-08-30T04:16:59.758Z,97.10
2018-08-30T04:19:28.585Z,97.00
2018-08-30T04:21:57.529Z,96.00
2018-08-30T04:24:26.290Z,95.60
2018-08-30T04:26:55.166Z,96.80
2018-08-30T04:29:23.974Z,96.90
2018-08-30T04:31:52.785Z,96.90
2018-08-30T04:34:21.609Z,96.50
2018-08-30T04:36:50.576Z,95.00
2018-08-30T04:39:19.401Z,94.90
2018-08-30T04:41:48.182Z,95.00
2018-08-30T04:44:17.004Z,95.30
2018-08-30T04:46:45.840Z,96.90
2018-08-30T04:49:14.628Z,96.70
2018-08-30T04:51:43.452Z,95.90
2018-08-30T04:54:12.289Z,96.10
2018-08-30T04:56:41.076Z,97.00
2018-08-30T04:59:09.926Z,97.90
2018-08-30T05:01:38.739Z,97.60
2018-08-30T05:04:07.618Z,97.30
2018-08-30T05:06:36.423Z,96.70
2018-08-30T05:09:08.301Z,98.10
2018-08-30T05:11:37.399Z,97.90
2018-08-30T05:14:06.368Z,97.30
2018-08-30T05:16:35.332Z,98.10
2018-08-30T05:19:04.044Z,98.30
2018-08-30T05:21:33.163Z,98.20
2018-08-30T05:24:02.197Z,98.50
2018-08-30T05:26:31.060Z,98.30
2018-08-30T05:28:59.934Z,98.90
2018-08-30T05:31:28.749Z,99.10
2018-08-30T05:33:57.554Z,99.00
2018-08-30T05:36:26.357Z,99.30
2018-08-30T05:38:55.221Z,98.30
2018-08-30T05:41:24.062Z,98.50
2018-08-30T05:43:52.869Z,97.50
2018-08-30T05:46:21.677Z,97.20
2018-08-30T05:48:50.465Z,96.80
2018-08-30T05:51:19.316Z,98.10
2018-08-30T05:53:48.143Z,98.00
2018-08-30T05:56:16.986Z,97.30
2018-08-30T05:58:45.854Z,97.90
2018-08-30T06:01:14.716Z,97.40
2018-08-30T06:03:43.592Z,97.90
2018-08-30T06:06:12.454Z,97.70
2018-08-30T06:08:41.804Z,98.10
2018-08-30T06:11:10.640Z,96.70
2018-08-30T06:13:39.424Z,96.50
2018-08-30T06:16:08.306Z,97.30
2018-08-30T06:18:37.063Z,96.90
2018-08-30T06:21:06.171Z,96.30
2018-08-30T06:23:35.120Z,96.70
2018-08-30T06:26:03.919Z,96.00
2018-08-30T06:28:32.736Z,95.00
2018-08-30T06:31:01.555Z,95.50
2018-08-30T06:33:30.396Z,95.20
2018-08-30T06:35:59.194Z,95.20
2018-08-30T06:38:28.045Z,93.10
2018-08-30T06:40:56.964Z,92.50
2018-08-30T06:43:25.801Z,93.40
2018-08-30T06:45:54.611Z,93.60
2018-08-30T06:48:23.402Z,93.20
2018-08-30T06:50:52.234Z,93.50
2018-08-30T06:53:21.099Z,93.20
2018-08-30T06:55:49.973Z,91.50
2018-08-30T06:58:18.810Z,90.60
2018-08-30T07:00:47.626Z,90.80
2018-08-30T07:03:16.419Z,91.00
2018-08-30T07:05:45.226Z,91.00
2018-08-30T07:08:14.152Z,90.90
2018-08-30T07:10:42.953Z,90.50
2018-08-30T07:13:15.955Z,90.80
2018-08-30T07:15:44.887Z,88.50
2018-08-30T07:18:13.737Z,88.80
2018-08-30T07:20:42.575Z,90.20
2018-08-30T07:23:11.380Z,90.00
2018-08-30T07:25:40.202Z,88.30
2018-08-30T07:28:08.976Z,86.40
2018-08-30T07:30:37.817Z,87.40
2018-08-30T07:33:06.600Z,86.40
2018-08-30T07:35:35.429Z,86.10
2018-08-30T07:38:04.228Z,84.50
2018-08-30T07:40:33.134Z,83.20
2018-08-30T07:43:01.928Z,81.80
2018-08-30T07:45:30.735Z,80.00
2018-08-30T07:47:59.517Z,78.50
2018-08-30T07:50:28.385Z,78.90
2018-08-30T07:52:57.264Z,77.90
2018-08-30T07:55:26.500Z,77.80
2018-08-30T07:57:55.307Z,78.20
2018-08-30T08:00:25.906Z,77.60
2018-08-30T08:02:55.186Z,76.90
2018-08-30T08:05:24.050Z,76.80
2018-08-30T08:07:52.986Z,76.80
2018-08-30T08:10:21.855Z,75.50
2018-08-30T08:12:50.670Z,74.00
2018-08-30T08:15:19.499Z,74.70
2018-08-30T08:17:48.332Z,73.90
2018-08-30T08:20:17.109Z,75.10
2018-08-30T08:22:45.991Z,74.10
2018-08-30T08:25:14.890Z,74.50
2018-08-30T08:27:43.739Z,72.90
2018-08-30T08:30:12.532Z,72.80
2018-08-30T08:32:41.323Z,73.20
2018-08-30T08:35:10.143Z,70.60
2018-08-30T08:37:38.970Z,71.30
2018-08-30T08:40:07.854Z,71.30
2018-08-30T08:42:36.627Z,70.10
2018-08-30T08:45:05.757Z,70.30
2018-08-30T08:47:34.584Z,70.60
2018-08-30T08:50:03.464Z,70.60
2018-08-30T08:52:32.400Z,69.60
2018-08-30T08:55:01.305Z,68.90
2018-08-30T08:57:30.149Z,68.20
2018-08-30T08:59:58.974Z,67.30
2018-08-30T09:02:27.777Z,67.00
2018-08-30T09:04:56.602Z,65.80
2018-08-30T09:07:25.495Z,66.90
2018-08-30T09:09:54.357Z,67.70
2018-08-30T09:12:23.208Z,67.60
2018-08-30T09:14:52.085Z,66.90
2018-08-30T09:17:20.968Z,65.70
2018-08-30T09:19:49.806Z,66.80
2018-08-30T09:22:18.659Z,66.00
2018-08-30T09:24:47.445Z,66.40
2018-08-30T09:27:16.361Z,66.70
2018-08-30T09:29:45.252Z,65.90
2018-08-30T09:32:14.218Z,66.00
2018-08-30T09:34:43.128Z,65.80
2018-08-30T09:37:14.235Z,65.40
2018-08-30T09:39:44.135Z,65.80
2018-08-30T09:42:13.387Z,64.20
2018-08-30T09:44:42.208Z,64.00
2018-08-30T09:47:11.048Z,65.00
2018-08-30T09:49:39.932Z,65.60
2018-08-30T09:52:08.794Z,64.60
2018-08-30T09:54:37.596Z,65.70
2018-08-30T09:57:06.645Z,65.20
2018-08-30T09:59:35.320Z,63.20
2018-08-30T10:02:09.401Z,61.60
2018-08-30T10:04:38.257Z,61.50
2018-08-30T10:07:07.092Z,59.00
2018-08-30T10:09:35.911Z,59.90
2018-08-30T10:12:04.761Z,59.20
2018-08-30T10:14:33.565Z,60.50
2018-08-30T10:17:02.395Z,58.10
2018-08-30T10:19:31.380Z,59.30
2018-08-30T10:22:00.246Z,59.40
2018-08-30T10:24:29.088Z,59.40
2018-08-30T10:26:57.966Z,59.60
2018-08-30T10:29:26.784Z,57.20
2018-08-30T10:31:55.619Z,56.90
2018-08-30T10:34:24.491Z,58.10
2018-08-30T10:36:53.336Z,57.60
2018-08-30T10:39:22.156Z,58.40
2018-08-30T10:41:51.014Z,57.40
2018-08-30T10:44:19.821Z,56.90
2018-08-30T10:46:48.700Z,56.60
2018-08-30T10:49:17.630Z,56.50
2018-08-30T10:51:46.438Z,56.00
2018-08-30T10:54:15.249Z,54.70
2018-08-30T10:56:44.112Z,55.30
2018-08-30T10:59:12.928Z,54.40
2018-08-30T11:01:41.805Z,53.20
2018-08-30T11:04:10.870Z,53.20
2018-08-30T11:06:39.819Z,52.80
2018-08-30T11:09:10.250Z,54.00
2018-08-30T11:11:39.043Z,52.60
2018-08-30T11:14:07.861Z,53.00
2018-08-30T11:16:36.664Z,51.50
2018-08-30T11:19:05.475Z,51.60
2018-08-30T11:21:34.369Z,51.90
2018-08-30T11:24:03.212Z,52.50
2018-08-30T11:26:32.075Z,52.70
2018-08-30T11:29:00.914Z,53.50
2018-08-30T11:31:29.776Z,53.70
2018-08-30T11:33:58.665Z,54.50
2018-08-30T11:36:27.733Z,53.80
2018-08-30T11:38:56.665Z,55.10
2018-08-30T11:41:25.506Z,53.70
2018-08-30T11:43:54.462Z,54.10
2018-08-30T11:46:23.335Z,55.40
2018-08-30T11:48:52.168Z,55.80
2018-08-30T11:51:21.003Z,55.10
2018-08-30T11:53:49.810Z,55.30
2018-08-30T11:56:18.626Z,55.10
2018-08-30T11:58:47.559Z,55.40
2018-08-30T12:01:16.339Z,55.00
2018-08-30T12:03:46.339Z,53.70
2018-08-30T12:06:15.233Z,53.50
2018-08-30T12:08:44.108Z,52.90
2018-08-30T12:11:13.096Z,53.10
2018-08-30T12:13:41.908Z,53.70
2018-08-30T12:16:10.864Z,52.60
2018-08-30T12:18:39.737Z,53.70
2018-08-30T12:21:08.662Z,54.20
2018-08-30T12:23:37.543Z,53.10
2018-08-30T12:26:06.459Z,53.10
2018-08-30T12:28:36.009Z,53.90
2018-08-30T12:31:04.970Z,54.70
2018-08-30T12:33:33.871Z,54.20
2018-08-30T12:36:02.824Z,53.00
2018-08-30T12:38:31.970Z,51.90
2018-08-30T12:41:00.940Z,52.10
2018-08-30T12:43:29.847Z,50.90
2018-08-30T12:45:58.644Z,51.30
2018-08-30T12:48:27.528Z,51.10
2018-08-30T12:50:56.542Z,51.90
2018-08-30T12:53:25.223Z,50.30
2018-08-30T12:55:54.099Z,51.10
2018-08-30T12:58:23.073Z,51.90
2018-08-30T13:00:51.888Z,51.50
2018-08-30T13:03:20.714Z,50.40
2018-08-30T13:05:49.606Z,51.90
2018-08-30T13:08:18.409Z,50.10
2018-08-30T13:10:47.303Z,51.80
2018-08-30T13:13:16.288Z,54.20
2018-08-30T13:15:45.029Z,56.90
2018-08-30T13:18:14.000Z,58.10
2018-08-30T13:20:43.025Z,59.20
2018-08-30T13:23:11.877Z,60.00
2018-08-30T13:25:40.737Z,59.70
2018-08-30T13:28:09.784Z,61.60
2018-08-30T13:30:38.655Z,62.90
2018-08-30T13:33:07.600Z,63.40
2018-08-30T13:35:36.488Z,65.50
2018-08-30T13:38:05.805Z,67.10
2018-08-30T13:40:34.867Z,64.80
2018-08-30T13:43:03.616Z,64.30
2018-08-30T13:45:32.465Z,66.00
2018-08-30T13:48:01.176Z,64.10
2018-08-30T13:53:21.193Z,65.00
2018-08-30T13:55:50.720Z,65.00
2018-08-30T13:58:20.597Z,68.10
2018-08-30T14:00:50.008Z,75.10
2018-08-30T14:03:19.247Z,86.20
2018-08-30T14:05:48.566Z,91.40
2018-08-30T14:08:17.952Z,97.80
2018-08-30T14:10:47.133Z,99.10
2018-08-30T14:13:16.393Z,97.00
2018-08-30T14:15:45.184Z,99.90
2018-08-30T14:18:14.427Z,99.90
2018-08-30T14:20:43.716Z,99.90
2018-08-30T14:23:12.962Z,99.90
2018-08-30T14:25:43.231Z,99.90
2018-08-30T14:28:12.377Z,99.90
2018-08-30T14:30:41.544Z,99.90
2018-08-30T14:33:10.787Z,99.90
2018-08-30T14:35:39.872Z,99.90
2018-08-30T14:38:11.733Z,99.90
2018-08-30T14:40:40.906Z,99.90
